Time;durP1;ratioP1;P1;durP2;ratioP2;P2;SDS_P1;SDS_P2;PMS_P1;PMS_P2;Temp;Humidity;BMP_temperature;BMP_pressure;BME280_temperature;BME280_humidity;BME280_pressure;Samples;Min_cycle;Max_cycle;Signal;HPM_P1;HPM_P2
2022/01/04 15:59:38;;;;;;;4.50;1.67;;;;;;;6.12;86.45;96307.81;5123982;23;20130;-52
2022/01/04 16:02:03;;;;;;;8.40;2.95;;;;;;;5.99;87.03;96314.97;4951945;29;20035;-48
2022/01/04 16:04:29;;;;;;;4.40;1.73;;;;;;;6.00;86.61;96324.44;4952859;29;20110;-47
2022/01/04 16:06:55;;;;;;;6.53;2.53;;;;;;;5.97;85.76;96322.91;4953379;29;20033;-49
2022/01/04 16:09:20;;;;;;;5.55;2.33;;;;;;;6.12;85.88;96339.06;4932477;29;20024;-51
2022/01/04 16:11:46;;;;;;;7.25;2.40;;;;;;;5.81;86.65;96351.88;4942068;28;20031;-48
2022/01/04 16:14:12;;;;;;;4.82;2.10;;;;;;;5.84;87.22;96359.44;4938633;29;20102;-49
2022/01/04 16:16:45;;;;;;;4.97;1.90;;;;;;;5.90;86.19;96356.38;4940009;29;20514;-49
2022/01/04 16:21:54;;;;;;;4.82;1.77;;;;;;;5.93;84.35;96376.97;4942615;29;20107;-47
2022/01/04 16:24:20;;;;;;;3.65;1.50;;;;;;;5.79;85.05;96385.00;4906749;29;20040;-49
2022/01/04 16:26:52;;;;;;;4.18;1.75;;;;;;;5.60;84.86;96374.38;4934370;29;20027;-51
2022/01/04 16:29:19;;;;;;;4.90;1.65;;;;;;;5.58;84.08;96382.31;4935122;29;20035;-50
2022/01/04 16:31:45;;;;;;;4.18;1.42;;;;;;;5.51;85.13;96393.31;4934510;28;20146;-48
2022/01/04 16:34:11;;;;;;;3.35;1.70;;;;;;;5.40;84.76;96388.91;4922188;29;20539;-47
2022/01/04 16:36:38;;;;;;;4.28;1.63;;;;;;;5.48;84.32;96397.78;4934734;29;20031;-49
2022/01/04 16:39:06;;;;;;;3.60;1.55;;;;;;;5.39;83.87;96390.69;4935252;29;20047;-52
2022/01/04 16:41:32;;;;;;;4.90;1.50;;;;;;;5.16;84.68;96404.59;4944647;29;20115;-50
2022/01/04 16:44:04;;;;;;;5.07;1.63;;;;;;;5.11;84.12;96398.94;4935066;29;20114;-47
2022/01/04 16:46:30;;;;;;;5.35;1.70;;;;;;;4.93;85.92;96380.34;4937934;29;20051;-48
2022/01/04 16:48:55;;;;;;;5.95;1.70;;;;;;;5.18;84.19;96398.34;4943232;29;20066;-47
2022/01/04 16:51:22;;;;;;;5.03;1.30;;;;;;;5.08;85.31;96410.38;4941115;29;20770;-49
2022/01/04 16:53:47;;;;;;;5.45;1.58;;;;;;;5.09;84.01;96401.63;4954998;29;20038;-49
2022/01/04 16:56:13;;;;;;;4.57;1.25;;;;;;;5.12;83.84;96413.56;4955829;29;20499;-49
2022/01/04 16:58:38;;;;;;;4.30;1.38;;;;;;;5.16;83.89;96412.38;4955605;29;20063;-50
2022/01/04 17:01:04;;;;;;;5.18;1.40;;;;;;;5.07;84.87;96411.31;4954530;29;20031;-48
2022/01/04 17:03:29;;;;;;;4.80;1.52;;;;;;;4.93;86.17;96414.13;4951506;29;20092;-47
2022/01/04 17:05:54;;;;;;;4.75;1.42;;;;;;;4.90;87.08;96406.56;4937403;29;20034;-50
2022/01/04 17:08:20;;;;;;;4.25;1.70;;;;;;;4.92;86.79;96415.03;4920081;29;20026;-50
2022/01/04 17:10:56;;;;;;;4.85;1.70;;;;;;;4.99;86.59;96417.09;4938033;29;20501;-51
2022/01/04 17:16:05;;;;;;;4.47;1.70;;;;;;;4.96;85.52;96425.13;4954533;29;20053;-49
2022/01/04 17:18:31;;;;;;;4.63;1.88;;;;;;;4.88;87.34;96430.03;4955371;29;20475;-50
2022/01/04 17:20:56;;;;;;;4.43;1.85;;;;;;;5.10;86.34;96433.66;4954322;29;20031;-53
2022/01/04 17:23:22;;;;;;;5.20;2.10;;;;;;;5.02;85.95;96421.22;4936896;29;20023;-53
2022/01/04 17:25:47;;;;;;;5.15;2.00;;;;;;;5.14;85.57;96427.28;4930047;29;20042;-50
2022/01/04 17:28:15;;;;;;;4.75;1.95;;;;;;;5.22;85.63;96432.72;4937799;29;20028;-51
2022/01/04 17:30:41;;;;;;;4.95;2.10;;;;;;;5.02;85.71;96431.59;4955760;29;20479;-52
2022/01/04 17:33:06;;;;;;;7.10;2.50;;;;;;;5.07;85.71;96444.28;4954121;29;20035;-48
2022/01/04 17:35:31;;;;;;;8.55;2.90;;;;;;;5.05;85.74;96446.16;4954090;29;20054;-51
2022/01/04 17:37:57;;;;;;;8.02;3.00;;;;;;;5.15;84.92;96437.56;4938678;29;20053;-51
2022/01/04 17:40:22;;;;;;;9.88;3.40;;;;;;;5.20;85.66;96445.84;4919970;29;20046;-47
2022/01/04 17:42:48;;;;;;;6.85;2.42;;;;;;;4.99;86.67;96444.84;4936841;29;20050;-52
2022/01/04 17:45:13;;;;;;;6.40;2.03;;;;;;;4.90;87.17;96448.13;4937412;29;20423;-49
2022/01/04 17:47:39;;;;;;;5.50;2.13;;;;;;;4.85;86.24;96445.03;4938034;29;20062;-51
2022/01/04 17:50:05;;;;;;;5.03;1.80;;;;;;;4.80;87.85;96441.94;4946623;28;20052;-53
2022/01/04 17:52:31;;;;;;;5.50;2.15;;;;;;;4.84;87.82;96428.59;4975284;28;20106;-53
2022/01/04 17:54:56;;;;;;;4.90;1.83;;;;;;;4.73;86.99;96438.97;4957443;28;20030;-50
2022/01/04 17:57:23;;;;;;;4.05;1.50;;;;;;;4.72;87.35;96448.53;4948654;28;20439;-48
2022/01/04 17:59:49;;;;;;;5.03;1.48;;;;;;;4.75;87.26;96463.06;4936991;29;20028;-51
2022/01/04 18:02:14;;;;;;;6.80;2.42;;;;;;;4.97;86.76;96465.75;4955562;29;20061;-48
2022/01/04 18:04:40;;;;;;;6.88;2.08;;;;;;;4.83;86.59;96467.69;4954511;29;20045;-49
2022/01/04 18:07:07;;;;;;;32.72;11.10;;;;;;;4.64;87.46;96465.59;4936251;29;20499;-47
2022/01/04 18:09:32;;;;;;;28.00;8.80;;;;;;;4.71;87.48;96475.44;4937252;29;20019;-47
2022/01/04 18:11:58;;;;;;;10.40;3.55;;;;;;;4.93;86.11;96464.31;4953034;29;20041;-48
2022/01/04 18:14:23;;;;;;;6.72;2.55;;;;;;;4.82;86.24;96461.69;4955017;29;20030;-49
2022/01/04 18:16:48;;;;;;;5.93;2.55;;;;;;;5.05;85.99;96472.13;4938604;29;20024;-47
2022/01/04 18:19:14;;;;;;;6.85;2.60;;;;;;;5.03;86.06;96476.63;4935740;29;20036;-49
2022/01/04 18:21:39;;;;;;;5.20;2.30;;;;;;;5.00;86.58;96473.31;4931623;29;20090;-48
2022/01/04 18:24:05;;;;;;;7.18;2.42;;;;;;;4.76;86.15;96477.69;4954972;29;20037;-48
2022/01/04 18:26:31;;;;;;;6.88;2.90;;;;;;;4.73;87.46;96472.72;4943225;29;20079;-51
2022/01/04 18:28:56;;;;;;;5.70;2.13;;;;;;;4.98;86.54;96488.16;4945748;29;20035;-50
2022/01/04 18:31:22;;;;;;;6.38;2.65;;;;;;;4.85;86.28;96495.22;4935173;29;20087;-48
2022/01/04 18:33:47;;;;;;;5.68;2.50;;;;;;;4.88;86.53;96497.56;4953140;29;20027;-49
2022/01/04 18:36:14;;;;;;;6.35;2.47;;;;;;;4.74;87.26;96495.16;4954774;29;20479;-49
2022/01/04 18:38:39;;;;;;;5.90;2.13;;;;;;;4.90;86.80;96498.31;4952327;29;20168;-52
2022/01/04 18:41:06;;;;;;;7.43;2.63;;;;;;;4.95;86.32;96503.16;4952809;29;20043;-51
2022/01/04 18:43:31;;;;;;;7.47;3.28;;;;;;;4.70;86.92;96509.31;4935908;29;20480;-50
2022/01/04 18:45:57;;;;;;;7.20;3.00;;;;;;;4.59;87.62;96517.03;4920071;29;20071;-48
2022/01/04 18:48:23;;;;;;;7.70;3.00;;;;;;;4.74;86.29;96516.75;4936549;29;20070;-46
2022/01/04 18:50:48;;;;;;;8.48;3.85;;;;;;;4.60;87.95;96513.50;4915539;29;20055;-49
2022/01/04 18:53:13;;;;;;;6.00;2.40;;;;;;;4.86;86.66;96515.06;4935163;29;20411;-52
2022/01/04 18:55:39;;;;;;;8.13;3.28;;;;;;;4.74;87.51;96508.97;4949350;29;20423;-47
2022/01/04 18:58:04;;;;;;;9.88;4.20;;;;;;;4.68;87.24;96500.78;4952040;29;20042;-49
2022/01/04 19:00:31;;;;;;;7.47;3.67;;;;;;;4.69;86.84;96494.66;4940746;29;20389;-48
2022/01/04 19:02:56;;;;;;;8.98;3.78;;;;;;;4.70;87.04;96501.50;4918433;29;20026;-50
2022/01/04 19:05:22;;;;;;;7.43;3.28;;;;;;;4.71;86.68;96500.56;4945572;29;20031;-48
2022/01/04 19:07:47;;;;;;;7.55;2.53;;;;;;;4.85;86.00;96495.22;4953946;28;20073;-48
2022/01/04 19:10:13;;;;;;;6.45;2.60;;;;;;;4.61;87.26;96496.97;4950406;29;20023;-51
2022/01/04 19:12:39;;;;;;;5.40;2.38;;;;;;;4.63;87.20;96490.75;4953157;29;20406;-53
2022/01/04 19:15:04;;;;;;;5.63;2.30;;;;;;;4.72;86.91;96486.66;4953945;29;20479;-49
2022/01/04 19:17:30;;;;;;;4.95;2.20;;;;;;;4.66;86.81;96489.69;4952447;29;20563;-49
2022/01/04 19:19:56;;;;;;;7.95;2.75;;;;;;;4.61;87.20;96484.00;4918692;29;20055;-49
2022/01/04 19:22:22;;;;;;;7.35;2.90;;;;;;;4.84;86.25;96488.34;4953962;29;20090;-46
2022/01/04 19:24:49;;;;;;;6.75;2.55;;;;;;;4.88;85.74;96482.00;4939582;29;20035;-52
2022/01/04 19:27:14;;;;;;;5.93;2.45;;;;;;;4.63;86.92;96485.53;4934470;29;20055;-49
2022/01/04 19:29:39;;;;;;;6.57;2.90;;;;;;;4.62;86.56;96496.06;4947349;29;20027;-49
2022/01/04 19:37:33;;;;;;;7.05;2.70;;;;;;;4.56;86.91;96496.50;4945679;29;20038;-47
2022/01/04 19:39:59;;;;;;;6.38;2.40;;;;;;;4.55;86.49;96503.44;4933370;29;20102;-47
2022/01/04 19:42:24;;;;;;;5.18;1.88;;;;;;;4.36;87.84;96503.91;4952594;29;20043;-49
2022/01/04 19:44:50;;;;;;;3.78;1.50;;;;;;;4.26;87.81;96508.09;4939412;29;20083;-50
2022/01/04 19:47:15;;;;;;;3.55;1.55;;;;;;;4.35;86.76;96514.41;4934592;29;20028;-51
2022/01/04 19:49:41;;;;;;;4.80;1.63;;;;;;;4.35;87.32;96512.66;4887588;29;20129;-49
2022/01/04 19:52:06;;;;;;;3.97;1.58;;;;;;;4.20;86.46;96514.56;4934936;29;20038;-47
2022/01/04 19:54:31;;;;;;;4.60;1.70;;;;;;;4.31;85.75;96498.22;4935411;29;20058;-48
2022/01/04 19:56:57;;;;;;;4.03;1.48;;;;;;;4.34;84.91;96523.16;4934146;29;20408;-49
2022/01/04 19:59:22;;;;;;;6.38;1.50;;;;;;;4.27;85.63;96533.13;4952553;29;20037;-48
2022/01/04 20:01:48;;;;;;;18.70;10.90;;;;;;;4.01;86.42;96540.94;4951837;29;20402;-47
2022/01/04 20:04:15;;;;;;;17.35;5.95;;;;;;;3.93;86.32;96538.06;4917267;29;20032;-48
2022/01/04 20:06:41;;;;;;;15.15;6.65;;;;;;;3.96;86.67;96534.44;4934786;29;20031;-47
2022/01/04 20:09:06;;;;;;;7.88;4.07;;;;;;;3.90;87.62;96529.66;4934457;29;20035;-48
2022/01/04 20:11:32;;;;;;;6.65;2.65;;;;;;;3.96;87.20;96537.84;4941668;29;20043;-48
2022/01/04 20:13:57;;;;;;;7.65;3.28;;;;;;;3.91;87.34;96537.31;4934551;29;20055;-50
2022/01/04 20:16:23;;;;;;;7.75;3.83;;;;;;;3.93;87.46;96542.41;4918416;28;20027;-56
2022/01/04 20:18:48;;;;;;;6.20;2.55;;;;;;;4.06;86.36;96540.63;4916513;29;20399;-49
2022/01/04 20:21:14;;;;;;;8.35;3.28;;;;;;;4.03;87.39;96536.47;4953763;28;20035;-50
2022/01/04 20:23:41;;;;;;;8.75;4.40;;;;;;;3.86;86.86;96547.19;4934786;28;20031;-48
2022/01/04 20:26:07;;;;;;;11.32;5.43;;;;;;;3.94;86.65;96546.66;4954834;28;20056;-48
2022/01/04 20:28:32;;;;;;;8.95;3.70;;;;;;;3.95;86.10;96556.91;4919834;28;20039;-52
2022/01/04 20:30:57;;;;;;;7.78;2.90;;;;;;;3.86;87.01;96557.56;4952669;28;20027;-49
2022/01/04 20:33:23;;;;;;;5.95;2.10;;;;;;;3.82;86.88;96558.72;4944996;28;20093;-49
2022/01/04 20:35:48;;;;;;;4.88;1.95;;;;;;;3.78;87.63;96547.69;4941881;29;20397;-48
2022/01/04 20:38:13;;;;;;;4.38;1.65;;;;;;;3.86;86.53;96556.72;4955423;29;20478;-48
2022/01/04 20:40:39;;;;;;;4.72;1.35;;;;;;;3.75;87.02;96552.25;4954702;29;20039;-53
2022/01/04 20:43:04;;;;;;;3.65;1.40;;;;;;;3.71;88.08;96564.59;4942077;29;20047;-47
2022/01/04 20:45:30;;;;;;;4.90;1.52;;;;;;;3.73;86.33;96567.91;4937021;29;20044;-49
2022/01/04 20:47:56;;;;;;;3.97;1.52;;;;;;;3.75;87.84;96568.66;4946245;29;20046;-49
2022/01/04 20:50:21;;;;;;;6.05;1.85;;;;;;;3.71;87.70;96568.94;4956674;29;20034;-47
2022/01/04 20:52:47;;;;;;;4.32;1.60;;;;;;;3.62;87.99;96567.81;4948949;29;20042;-47
2022/01/04 20:55:15;;;;;;;3.13;1.20;;;;;;;3.54;86.49;96555.38;4923314;29;20495;-52
2022/01/04 20:57:41;;;;;;;5.57;1.60;;;;;;;3.64;87.73;96570.28;4942774;29;20087;-49
2022/01/04 21:00:08;;;;;;;16.52;5.32;;;;;;;3.53;87.33;96571.84;4938787;29;20475;-48
2022/01/04 21:02:34;;;;;;;22.73;8.60;;;;;;;3.50;88.01;96587.59;4938161;29;20039;-51
2022/01/04 21:04:59;;;;;;;9.90;3.35;;;;;;;3.56;86.95;96584.59;4945590;29;20023;-51
2022/01/04 21:07:24;;;;;;;15.18;4.60;;;;;;;3.59;87.72;96582.75;4947168;29;20030;-51
2022/01/04 21:09:50;;;;;;;25.90;8.57;;;;;;;3.39;88.72;96571.91;4948885;29;20414;-47
